createdAt,value
2023-04-06T00:01:43.334Z,14.45
2023-04-06T00:04:11.123Z,14.48
2023-04-06T00:06:38.802Z,14.15
2023-04-06T00:09:06.889Z,16.48
2023-04-06T00:11:34.711Z,15.25
2023-04-06T00:14:02.344Z,16.73
2023-04-06T00:16:31.415Z,15.75
2023-04-06T00:18:59.061Z,15.85
2023-04-06T00:21:27.736Z,14.93
2023-04-06T00:23:55.430Z,15.27
2023-04-06T00:26:23.052Z,16.23
2023-04-06T00:28:52.944Z,14.13
2023-04-06T00:31:20.568Z,16.35
2023-04-06T00:33:50.389Z,15.45
2023-04-06T00:36:17.987Z,15.60
2023-04-06T00:38:45.647Z,17.00
2023-04-06T00:41:13.479Z,16.70
2023-04-06T00:43:41.122Z,17.00
2023-04-06T00:46:08.727Z,17.13
2023-04-06T00:48:36.370Z,16.15
2023-04-06T00:51:05.625Z,16.80
2023-04-06T00:53:33.254Z,17.05
2023-04-06T00:56:01.024Z,16.13
2023-04-06T00:58:28.720Z,14.68
2023-04-06T01:00:56.486Z,14.77
2023-04-06T01:03:24.650Z,13.38
2023-04-06T01:05:56.752Z,13.18
2023-04-06T01:08:25.852Z,11.98
2023-04-06T01:10:53.573Z,13.02
2023-04-06T01:13:21.185Z,12.95
2023-04-06T01:15:48.912Z,12.48
2023-04-06T01:18:16.556Z,13.98
2023-04-06T01:20:44.156Z,13.13
2023-04-06T01:23:13.137Z,13.40
2023-04-06T01:25:40.757Z,13.35
2023-04-06T01:28:08.384Z,13.30
2023-04-06T01:30:36.094Z,12.98
2023-04-06T01:33:03.780Z,13.05
2023-04-06T01:35:32.485Z,13.00
2023-04-06T01:38:00.696Z,12.00
2023-04-06T01:40:29.701Z,11.30
2023-04-06T01:42:57.372Z,12.73
2023-04-06T01:45:26.332Z,11.82
2023-04-06T01:47:54.079Z,12.30
2023-04-06T01:50:21.778Z,11.50
2023-04-06T01:52:49.370Z,11.95
2023-04-06T01:55:17.088Z,12.82
2023-04-06T01:57:46.271Z,12.30
2023-04-06T02:00:15.429Z,13.40
2023-04-06T02:02:43.103Z,12.50
2023-04-06T02:05:11.193Z,11.75
2023-04-06T02:07:38.796Z,11.63
2023-04-06T02:10:08.777Z,12.68
2023-04-06T02:12:36.384Z,13.55
2023-04-06T02:15:05.872Z,12.52
2023-04-06T02:17:33.522Z,11.25
2023-04-06T02:20:01.139Z,12.07
2023-04-06T02:22:28.744Z,12.10
2023-04-06T02:24:56.407Z,11.80
2023-04-06T02:27:24.069Z,11.60
2023-04-06T02:29:51.663Z,12.60
2023-04-06T02:32:20.767Z,13.70
2023-04-06T02:34:48.419Z,13.23
2023-04-06T02:37:16.082Z,12.23
2023-04-06T02:39:43.684Z,11.85
2023-04-06T02:42:11.271Z,11.88
2023-04-06T02:44:38.935Z,11.70
2023-04-06T02:47:06.595Z,12.23
2023-04-06T02:49:35.604Z,11.65
2023-04-06T02:52:03.662Z,13.52
2023-04-06T02:54:31.323Z,13.65
2023-04-06T02:56:58.899Z,12.25
2023-04-06T02:59:26.653Z,12.77
2023-04-06T03:01:54.364Z,13.25
2023-04-06T03:04:23.798Z,13.05
2023-04-06T03:06:52.775Z,10.90
2023-04-06T03:09:20.796Z,12.45
2023-04-06T03:11:48.388Z,13.70
2023-04-06T03:14:18.270Z,14.35
2023-04-06T03:16:45.967Z,13.85
2023-04-06T03:19:13.600Z,13.00
2023-04-06T03:21:41.224Z,13.52
2023-04-06T03:24:10.590Z,14.07
2023-04-06T03:26:38.243Z,13.20
2023-04-06T03:29:06.138Z,12.27
2023-04-06T03:31:33.980Z,12.25
2023-04-06T03:34:01.658Z,11.70
2023-04-06T03:36:29.314Z,12.07
2023-04-06T03:38:56.917Z,12.25
2023-04-06T03:41:26.004Z,12.82
2023-04-06T03:43:53.645Z,11.55
2023-04-06T03:46:21.261Z,13.38
2023-04-06T03:48:50.736Z,12.40
2023-04-06T03:51:18.303Z,11.90
2023-04-06T03:53:45.983Z,12.30
2023-04-06T03:56:13.545Z,11.75
2023-04-06T03:58:42.489Z,12.95
2023-04-06T04:01:10.321Z,13.45
2023-04-06T04:03:38.088Z,11.13
2023-04-06T04:06:05.781Z,13.65
2023-04-06T04:08:33.428Z,12.88
2023-04-06T04:11:01.042Z,12.23
2023-04-06T04:13:28.694Z,12.57
2023-04-06T04:15:57.639Z,12.65
2023-04-06T04:18:26.060Z,12.25
2023-04-06T04:20:53.662Z,12.77
2023-04-06T04:23:21.304Z,11.95
2023-04-06T04:25:48.929Z,12.38
2023-04-06T04:28:16.558Z,13.50
2023-04-06T04:30:44.173Z,13.20
2023-04-06T04:33:13.205Z,12.50
2023-04-06T04:35:40.889Z,11.65
2023-04-06T04:38:08.566Z,12.20
2023-04-06T04:40:36.203Z,13.15
2023-04-06T04:43:03.893Z,13.38
2023-04-06T04:45:31.583Z,14.50
2023-04-06T04:47:59.287Z,13.77
2023-04-06T04:50:28.439Z,13.45
2023-04-06T04:52:56.067Z,12.90
2023-04-06T04:55:23.720Z,13.70
2023-04-06T04:57:51.401Z,13.45
2023-04-06T05:00:19.378Z,12.93
2023-04-06T05:02:47.072Z,12.10
2023-04-06T05:05:14.758Z,12.27
2023-04-06T05:07:43.781Z,13.60
2023-04-06T05:10:11.917Z,13.10
2023-04-06T05:12:39.634Z,13.30
2023-04-06T05:15:08.151Z,13.35
2023-04-06T05:17:36.221Z,12.30
2023-04-06T05:20:03.944Z,14.07
2023-04-06T05:22:31.644Z,13.80
2023-04-06T05:25:00.679Z,13.68
2023-04-06T05:27:28.334Z,13.60
2023-04-06T05:29:57.791Z,13.52
2023-04-06T05:32:25.853Z,13.20
2023-04-06T05:34:53.770Z,12.55
2023-04-06T05:37:21.391Z,13.15
2023-04-06T05:39:49.054Z,13.30
2023-04-06T05:42:18.440Z,15.45
2023-04-06T05:44:46.096Z,12.85
2023-04-06T05:47:13.656Z,14.85
2023-04-06T05:49:41.396Z,13.70
2023-04-06T05:52:09.004Z,15.57
2023-04-06T05:54:37.331Z,17.92
2023-04-06T05:57:05.350Z,16.65
2023-04-06T05:59:34.399Z,16.98
2023-04-06T06:02:02.734Z,15.43
2023-04-06T06:04:30.539Z,14.40
2023-04-06T06:06:58.567Z,14.25
2023-04-06T06:09:26.272Z,13.82
2023-04-06T06:11:54.165Z,14.48
2023-04-06T06:14:22.841Z,13.23
2023-04-06T06:16:51.894Z,13.75
2023-04-06T06:19:19.545Z,15.10
2023-04-06T06:21:47.282Z,13.60
2023-04-06T06:24:14.968Z,12.63
2023-04-06T06:26:42.598Z,14.80
2023-04-06T06:29:10.326Z,14.75
2023-04-06T06:31:38.142Z,14.60
2023-04-06T06:34:07.161Z,14.23
2023-04-06T06:36:36.280Z,14.35
2023-04-06T06:39:04.644Z,14.48
2023-04-06T06:41:32.320Z,13.57
2023-04-06T06:43:59.953Z,14.55
2023-04-06T06:46:27.597Z,14.52
2023-04-06T06:48:55.353Z,14.15
2023-04-06T06:51:24.370Z,13.90
2023-04-06T06:53:52.031Z,15.05
2023-04-06T06:56:19.795Z,14.70
2023-04-06T06:58:47.581Z,13.80
2023-04-06T07:01:15.434Z,13.70
2023-04-06T07:03:43.254Z,13.82
2023-04-06T07:06:11.071Z,13.43
2023-04-06T07:08:40.186Z,15.20
2023-04-06T07:11:07.829Z,14.48
2023-04-06T07:13:35.617Z,14.48
2023-04-06T07:16:03.260Z,14.38
2023-04-06T07:18:30.987Z,16.20
2023-04-06T07:20:58.654Z,14.90
2023-04-06T07:23:26.353Z,16.30
2023-04-06T07:25:55.705Z,15.02
2023-04-06T07:28:23.351Z,14.27
2023-04-06T07:30:51.476Z,14.57
2023-04-06T07:33:19.143Z,13.98
2023-04-06T07:35:46.776Z,13.68
2023-04-06T07:38:14.573Z,14.13
2023-04-06T07:40:42.268Z,13.52
2023-04-06T07:43:11.328Z,13.85
2023-04-06T07:45:38.993Z,14.38
2023-04-06T07:48:06.880Z,14.38
2023-04-06T07:50:34.517Z,15.20
2023-04-06T07:53:02.188Z,14.75
2023-04-06T07:55:29.910Z,15.18
2023-04-06T07:57:57.578Z,15.05
2023-04-06T08:00:26.596Z,13.77
2023-04-06T08:02:54.361Z,14.10
2023-04-06T08:05:22.286Z,14.90
2023-04-06T08:07:49.978Z,14.15
2023-04-06T08:10:17.750Z,14.25
2023-04-06T08:12:45.413Z,14.32
2023-04-06T08:15:13.087Z,13.57
2023-04-06T08:17:42.127Z,14.68
2023-04-06T08:20:10.443Z,14.00
2023-04-06T08:22:38.025Z,14.68
2023-04-06T08:25:06.488Z,14.63
2023-04-06T08:27:34.166Z,14.00
2023-04-06T08:30:02.654Z,14.50
2023-04-06T08:32:30.263Z,14.70
2023-04-06T08:34:59.582Z,14.13
2023-04-06T08:37:27.448Z,13.55
2023-04-06T08:39:55.086Z,14.68
2023-04-06T08:42:23.696Z,14.70
2023-04-06T08:44:53.324Z,14.73
2023-04-06T08:47:24.553Z,14.90
2023-04-06T08:49:53.096Z,15.32
2023-04-06T08:52:22.073Z,14.23
2023-04-06T08:54:49.747Z,15.00
2023-04-06T08:57:17.671Z,14.98
2023-04-06T08:59:46.196Z,16.15
2023-04-06T09:02:19.111Z,14.93
2023-04-06T09:04:48.201Z,14.82
2023-04-06T09:07:16.517Z,15.35
2023-04-06T09:09:48.825Z,15.50
2023-04-06T09:12:24.815Z,15.52
2023-04-06T09:14:52.521Z,14.70
2023-04-06T09:17:23.704Z,15.23
2023-04-06T09:19:51.697Z,16.52
2023-04-06T09:22:20.125Z,15.93
2023-04-06T09:24:50.489Z,15.82
2023-04-06T09:27:18.129Z,16.40
2023-04-06T09:29:46.248Z,16.33
2023-04-06T09:32:17.606Z,17.05
2023-04-06T09:34:50.881Z,15.80
2023-04-06T09:37:19.895Z,16.90
2023-04-06T09:39:49.546Z,16.20
2023-04-06T09:42:26.782Z,16.00
2023-04-06T09:44:54.476Z,16.27
2023-04-06T09:47:25.201Z,17.33
2023-04-06T09:49:59.507Z,16.55
2023-04-06T09:52:29.189Z,16.88
2023-04-06T09:55:01.888Z,16.80
2023-04-06T09:57:33.814Z,17.42
2023-04-06T10:00:09.160Z,17.73
2023-04-06T10:02:43.683Z,17.20
2023-04-06T10:05:12.893Z,18.10
2023-04-06T10:07:49.770Z,17.25
2023-04-06T10:10:28.661Z,16.20
2023-04-06T10:12:56.756Z,17.52
2023-04-06T10:15:25.263Z,17.10
2023-04-06T10:17:53.373Z,16.50
2023-04-06T10:20:25.045Z,17.00
2023-04-06T10:22:57.872Z,16.77
2023-04-06T10:25:30.966Z,16.20
2023-04-06T10:28:02.561Z,15.70
2023-04-06T10:30:30.728Z,16.42
2023-04-06T10:32:58.495Z,15.70
2023-04-06T10:35:26.581Z,17.40
2023-04-06T10:37:55.741Z,17.33
2023-04-06T10:40:27.534Z,16.02
2023-04-06T10:42:57.827Z,16.05
2023-04-06T10:45:26.690Z,15.75
2023-04-06T10:47:54.935Z,16.92
2023-04-06T10:50:23.797Z,15.27
2023-04-06T10:53:01.448Z,15.85
2023-04-06T10:55:30.018Z,16.20
2023-04-06T10:57:59.025Z,16.98
2023-04-06T11:00:36.072Z,17.10
2023-04-06T11:03:11.012Z,17.42
2023-04-06T11:05:38.697Z,16.75
2023-04-06T11:08:06.711Z,17.80
2023-04-06T11:10:34.316Z,18.35
2023-04-06T11:13:03.499Z,17.08
2023-04-06T11:15:38.102Z,15.98
2023-04-06T11:18:07.132Z,16.42
2023-04-06T11:20:34.857Z,16.60
2023-04-06T11:23:02.929Z,16.83
2023-04-06T11:25:32.343Z,17.40
2023-04-06T11:28:00.115Z,17.60
2023-04-06T11:30:29.157Z,16.67
2023-04-06T11:33:02.726Z,17.95
2023-04-06T11:35:33.659Z,17.77
2023-04-06T11:38:05.049Z,15.93
2023-04-06T11:40:34.182Z,16.33
2023-04-06T11:43:01.824Z,15.52
2023-04-06T11:45:41.722Z,15.93
2023-04-06T11:48:20.103Z,16.65
2023-04-06T11:50:48.802Z,15.73
2023-04-06T11:53:16.465Z,16.52
2023-04-06T11:55:47.701Z,16.83
2023-04-06T11:58:15.977Z,16.60
2023-04-06T12:00:47.381Z,16.80
2023-04-06T12:03:15.554Z,16.83
2023-04-06T12:05:43.308Z,17.27
2023-04-06T12:08:10.931Z,17.00
2023-04-06T12:10:38.559Z,16.83
2023-04-06T12:13:06.386Z,17.35
2023-04-06T12:15:34.367Z,16.77
2023-04-06T12:18:03.521Z,16.45
2023-04-06T12:20:31.236Z,15.75
2023-04-06T12:22:58.842Z,16.90
2023-04-06T12:25:26.456Z,16.58
2023-04-06T12:27:54.104Z,15.93
2023-04-06T12:30:21.876Z,16.38
2023-04-06T12:32:51.296Z,16.95
2023-04-06T12:35:21.926Z,16.30
2023-04-06T12:37:49.541Z,15.40
2023-04-06T12:40:17.330Z,16.23
2023-04-06T12:42:46.649Z,14.48
2023-04-06T12:45:14.366Z,15.68
2023-04-06T12:47:42.050Z,15.10
2023-04-06T12:50:10.368Z,14.77
2023-04-06T12:52:39.426Z,15.30
2023-04-06T12:55:07.965Z,14.90
2023-04-06T12:57:35.789Z,15.68
2023-04-06T13:00:04.713Z,14.77
2023-04-06T13:02:33.618Z,14.32
2023-04-06T13:05:01.339Z,14.63
2023-04-06T13:07:28.957Z,15.30
2023-04-06T13:09:58.193Z,14.70
2023-04-06T13:12:27.044Z,14.70
2023-04-06T13:14:54.676Z,14.85
2023-04-06T13:17:23.612Z,14.70
2023-04-06T13:19:51.447Z,14.18
2023-04-06T13:22:19.086Z,13.82
2023-04-06T13:24:47.231Z,15.20
2023-04-06T13:27:16.197Z,15.45
2023-04-06T13:29:44.100Z,13.98
2023-04-06T13:32:11.948Z,14.80
2023-04-06T13:34:39.624Z,15.15
2023-04-06T13:37:07.325Z,14.75
2023-04-06T13:39:34.994Z,14.80
2023-04-06T13:42:03.948Z,13.75
2023-04-06T13:44:33.803Z,14.10
2023-04-06T13:47:01.388Z,13.57
2023-04-06T13:49:29.050Z,14.30
2023-04-06T13:51:56.740Z,14.15
2023-04-06T13:54:24.429Z,13.73
2023-04-06T13:56:53.508Z,13.32
2023-04-06T13:59:21.143Z,14.45
2023-04-06T14:01:50.337Z,15.55
2023-04-06T14:04:18.044Z,13.85
2023-04-06T14:06:46.889Z,14.63
2023-04-06T14:09:14.519Z,13.55
2023-04-06T14:11:42.210Z,13.43
2023-04-06T14:14:10.748Z,13.93
2023-04-06T14:16:38.389Z,14.23
2023-04-06T14:19:07.412Z,15.70
2023-04-06T14:21:34.995Z,14.80
2023-04-06T14:24:02.764Z,15.68
2023-04-06T14:26:30.389Z,14.57
2023-04-06T14:28:58.073Z,14.40
2023-04-06T14:31:25.735Z,15.05
2023-04-06T14:33:53.418Z,14.60
2023-04-06T14:36:22.511Z,15.95
2023-04-06T14:38:50.197Z,15.15
2023-04-06T14:41:18.640Z,13.93
2023-04-06T14:43:46.785Z,15.00
2023-04-06T14:46:14.907Z,14.00
2023-04-06T14:48:42.562Z,14.15
2023-04-06T14:51:10.204Z,13.68
2023-04-06T14:53:39.294Z,14.95
2023-04-06T14:56:07.634Z,13.98
2023-04-06T14:58:35.388Z,14.20
2023-04-06T15:01:03.727Z,14.68
2023-04-06T15:03:32.127Z,14.35
2023-04-06T15:06:00.324Z,13.65
2023-04-06T15:08:27.986Z,14.63
2023-04-06T15:11:01.130Z,13.45
2023-04-06T15:13:28.785Z,14.38
2023-04-06T15:15:56.601Z,14.20
2023-04-06T15:18:24.248Z,14.20
2023-04-06T15:20:51.942Z,13.80
2023-04-06T15:23:19.782Z,14.48
2023-04-06T15:25:47.387Z,13.35
2023-04-06T15:28:16.465Z,14.20
2023-04-06T15:30:44.147Z,12.90
2023-04-06T15:33:11.892Z,12.82
2023-04-06T15:35:40.629Z,13.82
2023-04-06T15:38:08.717Z,15.15
2023-04-06T15:40:37.207Z,13.80
2023-04-06T15:43:04.892Z,13.43
2023-04-06T15:45:33.848Z,14.10
2023-04-06T15:48:01.560Z,13.02
2023-04-06T15:50:29.445Z,13.45
2023-04-06T15:52:57.100Z,13.30
2023-04-06T15:55:25.035Z,14.38
2023-04-06T15:57:52.743Z,13.02
2023-04-06T16:00:21.250Z,13.77
2023-04-06T16:02:50.437Z,13.60
2023-04-06T16:05:18.189Z,12.68
2023-04-06T16:07:45.831Z,13.95
2023-04-06T16:10:13.517Z,12.40
2023-04-06T16:12:42.460Z,12.25
2023-04-06T16:15:13.745Z,13.13
2023-04-06T16:17:43.273Z,13.33
2023-04-06T16:20:15.672Z,13.00
2023-04-06T16:22:43.497Z,13.77
2023-04-06T16:25:11.863Z,13.02
2023-04-06T16:27:39.507Z,11.90
2023-04-06T16:30:08.624Z,14.10
2023-04-06T16:32:36.364Z,13.52
2023-04-06T16:35:04.216Z,13.23
2023-04-06T16:37:33.628Z,12.88
2023-04-06T16:40:01.421Z,12.82
2023-04-06T16:42:29.063Z,12.65
2023-04-06T16:44:56.882Z,12.23
2023-04-06T16:47:24.751Z,13.27
2023-04-06T16:49:53.580Z,13.05
2023-04-06T16:52:21.302Z,12.73
2023-04-06T16:54:50.872Z,12.82
2023-04-06T16:57:20.528Z,13.68
2023-04-06T16:59:48.176Z,12.63
2023-04-06T17:02:16.294Z,12.40
2023-04-06T17:04:44.288Z,12.07
2023-04-06T17:07:11.955Z,13.10
2023-04-06T17:09:39.555Z,11.70
2023-04-06T17:12:09.158Z,12.15
2023-04-06T17:14:36.833Z,12.65
2023-04-06T17:17:04.506Z,12.32
2023-04-06T17:19:32.367Z,11.88
2023-04-06T17:21:59.972Z,11.35
2023-04-06T17:24:27.585Z,11.63
2023-04-06T17:26:55.171Z,11.50
2023-04-06T17:29:24.150Z,11.18
2023-04-06T17:31:51.773Z,11.65
2023-04-06T17:34:19.446Z,11.57
2023-04-06T17:36:47.073Z,11.40
2023-04-06T17:39:14.725Z,11.38
2023-04-06T17:41:42.601Z,11.55
2023-04-06T17:44:10.243Z,12.18
2023-04-06T17:46:39.238Z,11.48
2023-04-06T17:49:09.349Z,12.07
2023-04-06T17:51:37.106Z,10.88
2023-04-06T17:54:04.851Z,11.38
2023-04-06T17:56:32.494Z,12.40
2023-04-06T17:59:00.132Z,11.75
2023-04-06T18:01:28.001Z,11.48
2023-04-06T18:03:57.178Z,11.85
2023-04-06T18:06:25.794Z,12.10
2023-04-06T18:08:53.926Z,10.80
2023-04-06T18:11:22.066Z,11.77
2023-04-06T18:13:50.085Z,11.30
2023-04-06T18:16:20.336Z,10.98
2023-04-06T18:18:48.293Z,11.90
2023-04-06T18:21:17.602Z,12.23
2023-04-06T18:23:45.529Z,12.55
2023-04-06T18:26:16.778Z,13.85
2023-04-06T18:28:44.545Z,13.33
2023-04-06T18:31:12.214Z,14.50
2023-04-06T18:33:39.941Z,15.15
2023-04-06T18:36:09.708Z,15.25
2023-04-06T18:38:40.364Z,14.05
2023-04-06T18:41:08.061Z,14.25
2023-04-06T18:43:36.936Z,15.05
2023-04-06T18:46:05.158Z,14.85
2023-04-06T18:48:32.810Z,15.40
2023-04-06T18:51:02.002Z,13.93
2023-04-06T18:53:29.921Z,13.45
2023-04-06T18:55:59.641Z,13.82
2023-04-06T18:58:27.641Z,14.23
2023-04-06T19:00:57.328Z,14.10
2023-04-06T19:03:25.222Z,32.75
2023-04-06T19:05:52.900Z,32.00
2023-04-06T19:08:20.810Z,19.05
2023-04-06T19:10:49.341Z,19.30
2023-04-06T19:13:18.356Z,15.30
2023-04-06T19:15:46.258Z,17.17
2023-04-06T19:18:13.901Z,16.67
2023-04-06T19:20:41.501Z,16.75
2023-04-06T19:23:09.375Z,18.65
2023-04-06T19:25:37.039Z,15.25
2023-04-06T19:28:04.839Z,14.02
2023-04-06T19:30:34.162Z,13.85
2023-04-06T19:33:02.746Z,14.43
2023-04-06T19:35:30.923Z,15.63
2023-04-06T19:37:58.542Z,16.52
2023-04-06T19:40:26.201Z,16.02
2023-04-06T19:42:53.814Z,15.82
2023-04-06T19:45:21.447Z,15.52
2023-04-06T19:47:50.463Z,14.65
2023-04-06T19:50:18.099Z,15.75
2023-04-06T19:52:45.736Z,14.60
2023-04-06T19:55:13.345Z,12.63
2023-04-06T19:57:41.090Z,14.07
2023-04-06T20:00:11.006Z,13.85
2023-04-06T20:02:38.728Z,12.50
2023-04-06T20:05:08.505Z,11.23
2023-04-06T20:07:37.801Z,13.30
2023-04-06T20:10:06.995Z,15.23
2023-04-06T20:12:34.619Z,14.93
2023-04-06T20:15:02.233Z,14.80
2023-04-06T20:17:29.843Z,16.05
2023-04-06T20:19:57.435Z,16.13
2023-04-06T20:22:26.408Z,16.00
2023-04-06T20:24:54.089Z,16.23
2023-04-06T20:27:22.140Z,15.10
2023-04-06T20:29:49.762Z,14.23
2023-04-06T20:32:20.646Z,15.77
2023-04-06T20:34:48.756Z,16.52
2023-04-06T20:37:16.605Z,20.88
2023-04-06T20:39:45.616Z,22.90
2023-04-06T20:42:13.338Z,15.90
2023-04-06T20:44:40.995Z,14.98
2023-04-06T20:47:08.972Z,15.45
2023-04-06T20:49:36.756Z,14.73
2023-04-06T20:52:04.416Z,14.35
2023-04-06T20:54:32.052Z,13.48
2023-04-06T20:57:01.797Z,13.82
2023-04-06T20:59:29.739Z,14.13
2023-04-06T21:01:57.425Z,14.98
2023-04-06T21:04:25.241Z,15.05
2023-04-06T21:06:53.080Z,14.82
2023-04-06T21:09:20.749Z,14.73
2023-04-06T21:11:48.368Z,14.57
2023-04-06T21:14:19.491Z,15.80
2023-04-06T21:19:15.685Z,16.17
2023-04-06T21:21:43.462Z,14.68
2023-04-06T21:24:11.101Z,14.07
2023-04-06T21:26:38.691Z,13.80
2023-04-06T21:29:06.323Z,15.40
2023-04-06T21:31:40.994Z,14.43
2023-04-06T21:34:10.011Z,14.50
2023-04-06T21:36:37.911Z,14.77
2023-04-06T21:39:06.084Z,14.35
2023-04-06T21:41:34.113Z,13.70
2023-04-06T21:44:01.829Z,14.38
2023-04-06T21:46:29.745Z,15.02
2023-04-06T21:48:58.845Z,15.07
2023-04-06T21:51:27.490Z,13.20
2023-04-06T21:53:56.393Z,13.93
2023-04-06T21:56:25.645Z,12.38
2023-04-06T21:58:54.221Z,13.80
2023-04-06T22:01:21.859Z,14.57
2023-04-06T22:03:49.797Z,14.07
2023-04-06T22:06:18.994Z,13.95
2023-04-06T22:08:48.027Z,15.10
2023-04-06T22:11:16.164Z,14.85
2023-04-06T22:13:43.797Z,13.82
2023-04-06T22:16:11.493Z,15.20
2023-04-06T22:18:39.474Z,13.50
2023-04-06T22:21:07.373Z,15.20
2023-04-06T22:23:41.918Z,13.05
2023-04-06T22:26:10.610Z,13.93
2023-04-06T22:28:38.693Z,14.38
2023-04-06T22:31:06.437Z,14.98
2023-04-06T22:33:34.088Z,14.02
2023-04-06T22:36:01.746Z,14.27
2023-04-06T22:38:29.449Z,14.40
2023-04-06T22:40:58.404Z,14.20
2023-04-06T22:43:25.997Z,13.50
2023-04-06T22:45:53.591Z,13.80
2023-04-06T22:48:21.300Z,14.73
2023-04-06T22:50:48.954Z,13.70
2023-04-06T22:53:16.538Z,13.63
2023-04-06T22:55:44.403Z,14.10
2023-04-06T22:58:13.397Z,14.20
2023-04-06T23:00:41.195Z,13.43
2023-04-06T23:03:08.989Z,13.68
2023-04-06T23:05:36.699Z,18.48
2023-04-06T23:08:04.330Z,13.85
2023-04-06T23:10:31.987Z,13.77
2023-04-06T23:12:59.587Z,14.05
2023-04-06T23:15:28.624Z,15.90
2023-04-06T23:17:56.265Z,16.02
2023-04-06T23:20:24.112Z,15.60
2023-04-06T23:22:51.714Z,15.10
2023-04-06T23:25:19.454Z,18.70
2023-04-06T23:27:47.090Z,17.05
2023-04-06T23:30:14.801Z,14.43
2023-04-06T23:32:43.967Z,16.05
2023-04-06T23:35:11.910Z,14.18
2023-04-06T23:37:39.632Z,14.88
2023-04-06T23:40:08.706Z,16.55
2023-04-06T23:42:36.442Z,18.20
2023-04-06T23:45:05.178Z,17.95
2023-04-06T23:47:32.865Z,15.63
2023-04-06T23:50:01.894Z,16.40
2023-04-06T23:52:30.579Z,16.98
2023-04-06T23:54:58.261Z,19.58
2023-04-06T23:57:26.019Z,17.00
2023-04-06T23:59:53.665Z,18.23
